Time;durP1;ratioP1;P1;durP2;ratioP2;P2;SDS_P1;SDS_P2;PMS_P1;PMS_P2;Temp;Humidity;BMP_temperature;BMP_pressure;BME280_temperature;BME280_humidity;BME280_pressure;Samples;Min_cycle;Max_cycle;Signal;HPM_P1;HPM_P2
2021/07/04 00:00:33;;;;;;;3.90;2.75;;;20.40;90.10;;;;;;5097321;28;20024;-71
2021/07/04 00:03:00;;;;;;;4.80;2.90;;;20.40;90.60;;;;;;5097590;28;20012;-71
2021/07/04 00:05:29;;;;;;;2.85;2.63;;;20.40;92.20;;;;;;5097575;28;20024;-71
2021/07/04 00:07:55;;;;;;;4.35;2.83;;;20.40;92.70;;;;;;5097517;28;20099;-71
2021/07/04 00:10:31;;;;;;;3.58;2.78;;;20.40;93.30;;;;;;5097403;28;20469;-71
2021/07/04 00:12:58;;;;;;;3.97;2.30;;;20.40;92.80;;;;;;5097229;28;20028;-71
2021/07/04 00:15:27;;;;;;;3.30;2.90;;;20.40;92.90;;;;;;5097001;28;20025;-71
2021/07/04 00:17:53;;;;;;;3.53;3.08;;;20.40;93.40;;;;;;5097355;28;20031;-71
2021/07/04 00:20:20;;;;;;;3.35;3.05;;;20.30;93.20;;;;;;5097314;28;20028;-71
2021/07/04 00:22:54;;;;;;;5.88;3.00;;;20.30;94.40;;;;;;5097309;28;20020;-71
2021/07/04 00:25:20;;;;;;;3.05;2.60;;;20.40;93.80;;;;;;5096930;28;20416;-71
2021/07/04 00:27:46;;;;;;;3.10;2.80;;;20.40;94.20;;;;;;5097256;28;20031;-71
2021/07/04 00:30:14;;;;;;;3.47;3.08;;;20.40;94.30;;;;;;5097125;28;20315;-71
2021/07/04 00:32:39;;;;;;;4.38;3.10;;;20.30;94.60;;;;;;5096853;28;20134;-71
2021/07/04 00:35:08;;;;;;;4.97;3.70;;;20.30;93.90;;;;;;5097036;28;20051;-71
2021/07/04 00:37:33;;;;;;;4.78;2.97;;;20.30;94.00;;;;;;5096791;28;20024;-71
2021/07/04 00:39:59;;;;;;;4.68;3.33;;;20.40;93.70;;;;;;5096760;28;20081;-71
2021/07/04 00:42:25;;;;;;;3.03;2.70;;;20.40;94.40;;;;;;5096726;28;20039;-71
2021/07/04 00:44:52;;;;;;;3.40;3.10;;;20.40;93.50;;;;;;5097084;28;20110;-71
2021/07/04 00:47:18;;;;;;;5.43;3.40;;;20.40;94.20;;;;;;5096963;28;20027;-71
2021/07/04 00:49:44;;;;;;;7.05;4.03;;;20.40;93.60;;;;;;5096610;28;20028;-71
2021/07/04 00:52:10;;;;;;;6.07;4.18;;;20.30;94.30;;;;;;5096933;28;20028;-71
2021/07/04 00:54:36;;;;;;;5.45;4.00;;;20.20;94.90;;;;;;5096770;28;20116;-71
2021/07/04 00:57:03;;;;;;;4.40;4.00;;;20.00;96.00;;;;;;5096918;28;20290;-71
2021/07/04 00:59:28;;;;;;;4.20;3.80;;;19.90;96.70;;;;;;5096536;28;20416;-71
2021/07/04 01:01:58;;;;;;;8.40;4.80;;;19.80;96.10;;;;;;5096857;28;20035;-71
2021/07/04 01:04:26;;;;;;;6.28;4.85;;;19.70;96.60;;;;;;5096572;28;20032;-71
2021/07/04 01:06:51;;;;;;;7.30;4.10;;;19.70;96.40;;;;;;5096446;28;20035;-71
2021/07/04 01:09:17;;;;;;;5.45;3.90;;;19.60;96.30;;;;;;5096709;28;20032;-71
2021/07/04 01:11:43;;;;;;;5.45;4.65;;;19.60;96.10;;;;;;5096793;28;20396;-71
2021/07/04 01:14:09;;;;;;;5.20;4.68;;;19.60;96.30;;;;;;5096931;28;20103;-71
2021/07/04 01:16:35;;;;;;;6.10;4.95;;;19.60;96.70;;;;;;5096413;28;20487;-71
2021/07/04 01:19:01;;;;;;;4.95;4.47;;;19.60;97.50;;;;;;5096402;28;20064;-71
2021/07/04 01:21:29;;;;;;;5.82;4.60;;;19.60;97.00;;;;;;5096376;28;20058;-71
2021/07/04 01:23:55;;;;;;;5.35;4.85;;;19.60;97.70;;;;;;5096676;28;20032;-71
2021/07/04 01:26:21;;;;;;;5.47;4.80;;;19.60;98.00;;;;;;5096508;28;20316;-71
2021/07/04 01:28:46;;;;;;;5.32;4.82;;;19.50;97.70;;;;;;5100488;28;20028;-71
2021/07/04 01:31:12;;;;;;;7.97;5.45;;;19.50;98.00;;;;;;5100476;28;20020;-71
2021/07/04 01:33:38;;;;;;;6.50;4.85;;;19.50;98.00;;;;;;5100121;28;20028;-71
2021/07/04 01:36:05;;;;;;;5.18;4.78;;;19.50;97.30;;;;;;5100399;28;20020;-71
2021/07/04 01:38:31;;;;;;;5.65;4.53;;;19.40;96.90;;;;;;5100058;28;20021;-71
2021/07/04 01:40:57;;;;;;;4.15;3.75;;;19.40;97.30;;;;;;5100030;28;20442;-71
2021/07/04 01:43:23;;;;;;;6.53;3.92;;;19.50;96.40;;;;;;5099825;28;20036;-71
2021/07/04 01:45:49;;;;;;;4.63;3.92;;;19.50;96.70;;;;;;5100192;28;20069;-71
2021/07/04 01:48:15;;;;;;;5.47;4.30;;;19.60;96.10;;;;;;5100077;28;20397;-71
2021/07/04 01:50:47;;;;;;;4.18;3.88;;;19.50;96.40;;;;;;5100132;28;20103;-71
2021/07/04 01:53:14;;;;;;;5.05;3.95;;;19.40;95.90;;;;;;5099765;28;20393;-71
2021/07/04 01:55:40;;;;;;;4.57;4.18;;;19.30;95.90;;;;;;5099657;28;20085;-71
2021/07/04 01:58:05;;;;;;;4.53;4.13;;;19.40;95.30;;;;;;5099674;28;20027;-71
2021/07/04 02:00:33;;;;;;;4.82;4.10;;;19.50;96.90;;;;;;5099626;28;20115;-71
2021/07/04 02:03:01;;;;;;;6.32;4.47;;;19.60;95.10;;;;;;5099889;28;20116;-71
2021/07/04 02:05:27;;;;;;;4.70;4.30;;;19.70;95.40;;;;;;5099841;28;20294;-71
2021/07/04 02:07:53;;;;;;;4.22;3.83;;;19.70;95.50;;;;;;5099796;28;20028;-71
2021/07/04 02:10:22;;;;;;;6.35;4.00;;;19.70;95.50;;;;;;5099699;28;20383;-71
2021/07/04 02:12:48;;;;;;;4.00;3.70;;;19.70;95.90;;;;;;5099675;28;20031;-71
2021/07/04 02:15:17;;;;;;;4.03;3.70;;;19.70;95.70;;;;;;5099314;28;20073;-71
2021/07/04 02:17:43;;;;;;;4.93;4.00;;;19.70;96.30;;;;;;5099580;28;20016;-71
2021/07/04 02:20:34;;;;;;;4.38;3.97;;;19.70;96.80;;;;;;5099249;28;20116;-71
2021/07/04 02:23:30;;;;;;;4.68;3.92;;;19.70;96.30;;;;;;5099227;28;20036;-71
2021/07/04 02:25:56;;;;;;;3.45;3.15;;;19.70;95.40;;;;;;5099430;28;20034;-71
2021/07/04 02:28:25;;;;;;;4.22;3.83;;;19.60;96.10;;;;;;5099310;28;20394;-71
2021/07/04 02:30:53;;;;;;;4.93;3.38;;;19.60;96.00;;;;;;5099049;28;20077;-71
2021/07/04 02:33:19;;;;;;;4.07;3.45;;;19.50;96.40;;;;;;5099286;28;20298;-71
2021/07/04 02:35:48;;;;;;;4.20;3.80;;;19.50;96.70;;;;;;5098897;28;20028;-71
2021/07/04 02:38:14;;;;;;;4.22;3.20;;;19.50;96.80;;;;;;5098599;28;20020;-71
2021/07/04 02:40:41;;;;;;;3.60;3.30;;;19.50;96.90;;;;;;5099151;28;20074;-71
2021/07/04 02:43:08;;;;;;;4.18;3.67;;;19.50;97.00;;;;;;5098917;28;20036;-71
2021/07/04 02:45:34;;;;;;;4.38;3.63;;;19.60;97.00;;;;;;5098692;28;20028;-71
2021/07/04 02:48:00;;;;;;;4.75;3.92;;;19.60;97.80;;;;;;5098975;28;20043;-71
2021/07/04 02:50:26;;;;;;;3.67;3.38;;;19.60;97.80;;;;;;5098569;28;20032;-71
2021/07/04 02:52:53;;;;;;;5.70;3.50;;;19.70;97.30;;;;;;5098609;28;20133;-71
2021/07/04 02:55:21;;;;;;;4.15;3.60;;;19.70;96.90;;;;;;5098570;28;20347;-71
2021/07/04 02:57:47;;;;;;;4.28;3.58;;;19.70;96.90;;;;;;5098533;28;20020;-71
2021/07/04 03:00:15;;;;;;;3.33;3.03;;;19.70;96.90;;;;;;5098501;28;20028;-71
2021/07/04 03:02:41;;;;;;;4.28;3.72;;;19.70;96.50;;;;;;5098697;28;20288;-71
2021/07/04 03:05:08;;;;;;;5.47;3.72;;;19.60;96.80;;;;;;5098351;28;20031;-71
2021/07/04 03:07:36;;;;;;;4.93;3.53;;;19.50;97.40;;;;;;5098852;28;20331;-71
2021/07/04 03:10:03;;;;;;;3.92;3.53;;;19.30;97.80;;;;;;5098491;28;20028;-71
2021/07/04 03:12:28;;;;;;;3.40;3.08;;;19.30;98.00;;;;;;5098521;28;20035;-71
2021/07/04 03:14:54;;;;;;;4.70;3.60;;;19.20;98.00;;;;;;5098269;28;20412;-71
2021/07/04 03:17:20;;;;;;;5.65;3.40;;;19.30;98.00;;;;;;5098092;28;20024;-71
2021/07/04 03:19:45;;;;;;;4.78;3.50;;;19.30;98.00;;;;;;5098397;28;20028;-71
2021/07/04 03:22:11;;;;;;;4.13;3.65;;;19.30;98.00;;;;;;5098368;28;20028;-71
2021/07/04 03:24:39;;;;;;;3.75;3.25;;;19.30;98.00;;;;;;5098038;28;20416;-71
2021/07/04 03:27:06;;;;;;;3.50;3.20;;;19.40;98.00;;;;;;5097956;28;20539;-71
2021/07/04 03:29:32;;;;;;;3.13;2.90;;;19.40;98.00;;;;;;5098144;28;20028;-71
2021/07/04 03:31:57;;;;;;;4.50;3.08;;;19.50;98.00;;;;;;5097880;28;20031;-71
2021/07/04 03:34:23;;;;;;;3.97;3.33;;;19.60;97.80;;;;;;5098157;28;20027;-71
2021/07/04 03:36:49;;;;;;;4.20;3.08;;;19.60;97.30;;;;;;5098012;28;20024;-71
2021/07/04 03:39:14;;;;;;;4.90;3.33;;;19.70;96.80;;;;;;5098028;28;20447;-71
2021/07/04 03:41:40;;;;;;;4.28;2.85;;;19.70;96.80;;;;;;5097998;28;20032;-71
2021/07/04 03:44:06;;;;;;;3.42;3.13;;;19.80;96.90;;;;;;5097983;28;20089;-71
2021/07/04 03:46:32;;;;;;;3.33;3.03;;;19.80;96.40;;;;;;5097825;28;20023;-71
2021/07/04 03:48:57;;;;;;;3.28;2.97;;;19.70;96.00;;;;;;5097133;28;20028;-71
2021/07/04 03:51:23;;;;;;;4.10;3.38;;;19.70;96.60;;;;;;5097510;28;20073;-71
2021/07/04 03:53:49;;;;;;;3.35;3.00;;;19.70;96.70;;;;;;5097773;28;20041;-71
2021/07/04 03:56:14;;;;;;;3.67;3.05;;;19.70;96.10;;;;;;5097299;28;20332;-71
2021/07/04 03:58:40;;;;;;;4.35;3.13;;;19.70;96.00;;;;;;5097689;28;20043;-71
2021/07/04 04:01:06;;;;;;;3.17;2.83;;;19.70;96.30;;;;;;5079487;28;20066;-71
2021/07/04 04:03:31;;;;;;;7.90;3.20;;;19.70;96.70;;;;;;5097551;28;20024;-71
2021/07/04 04:05:57;;;;;;;3.53;3.22;;;19.70;96.70;;;;;;5097606;28;20336;-71
2021/07/04 04:08:24;;;;;;;4.68;2.85;;;19.70;97.00;;;;;;5097142;28;20039;-71
2021/07/04 04:10:50;;;;;;;3.72;3.08;;;19.80;96.50;;;;;;5097195;28;20035;-71
2021/07/04 04:13:16;;;;;;;3.25;2.95;;;19.90;96.50;;;;;;5097491;28;20042;-71
2021/07/04 04:15:41;;;;;;;3.38;3.03;;;19.90;96.00;;;;;;5097406;28;20016;-71
2021/07/04 04:18:07;;;;;;;3.85;3.03;;;19.90;96.00;;;;;;5097403;28;20028;-71
2021/07/04 04:20:33;;;;;;;5.43;3.08;;;19.90;95.90;;;;;;5097326;28;20484;-71
2021/07/04 04:22:59;;;;;;;3.30;3.00;;;19.80;95.80;;;;;;5096958;28;20060;-71
2021/07/04 04:25:24;;;;;;;6.45;3.10;;;19.90;95.80;;;;;;5096967;28;20081;-71
2021/07/04 04:27:50;;;;;;;3.58;2.95;;;19.90;96.20;;;;;;5097275;28;20035;-71
2021/07/04 04:30:16;;;;;;;5.95;3.00;;;19.80;96.30;;;;;;5096846;28;20024;-71
2021/07/04 04:32:42;;;;;;;2.65;2.45;;;19.90;96.00;;;;;;5096771;28;20412;-71
2021/07/04 04:35:09;;;;;;;3.95;2.85;;;19.90;96.10;;;;;;5097128;28;20020;-71
2021/07/04 04:37:36;;;;;;;3.30;3.00;;;19.90;96.50;;;;;;5097148;28;20024;-70
2021/07/04 04:40:03;;;;;;;2.88;2.65;;;19.90;96.50;;;;;;5097124;28;20044;-71
2021/07/04 04:42:29;;;;;;;3.13;2.83;;;19.90;96.20;;;;;;5097039;28;20040;-71
2021/07/04 04:44:55;;;;;;;4.93;3.47;;;19.90;97.30;;;;;;5096785;28;20093;-71
2021/07/04 04:47:20;;;;;;;4.20;3.72;;;19.70;97.00;;;;;;5096666;28;20035;-71
2021/07/04 04:49:46;;;;;;;206.60;10.38;;;19.70;97.10;;;;;;5096573;28;20032;-71
2021/07/04 04:52:12;;;;;;;76.03;6.93;;;19.70;98.00;;;;;;5096989;28;20091;-71
2021/07/04 04:54:37;;;;;;;144.25;10.13;;;19.70;98.00;;;;;;5096764;28;20020;-70
2021/07/04 04:57:06;;;;;;;229.85;10.77;;;19.70;98.00;;;;;;5096939;28;20430;-71
2021/07/04 04:59:36;;;;;;;6.25;4.60;;;19.70;98.00;;;;;;5096653;28;20428;-71
2021/07/04 05:02:03;;;;;;;4.63;4.22;;;19.70;98.00;;;;;;5099985;28;20032;-71
2021/07/04 05:04:28;;;;;;;4.68;4.28;;;19.80;97.90;;;;;;5100708;28;20108;-71
2021/07/04 05:06:54;;;;;;;6.85;4.43;;;20.00;97.20;;;;;;5100680;28;20055;-71
2021/07/04 05:09:20;;;;;;;4.50;4.10;;;20.00;96.20;;;;;;5100867;28;20035;-71
2021/07/04 05:11:45;;;;;;;4.47;4.10;;;20.10;96.60;;;;;;5100932;28;20047;-71
2021/07/04 05:14:11;;;;;;;5.07;4.40;;;20.10;96.40;;;;;;5101011;28;20025;-71
2021/07/04 05:16:38;;;;;;;4.72;4.32;;;20.30;96.00;;;;;;5100518;28;20020;-71
2021/07/04 05:19:06;;;;;;;6.25;4.57;;;20.40;95.70;;;;;;5100752;28;20028;-71
2021/07/04 05:21:35;;;;;;;4.93;3.95;;;20.50;95.40;;;;;;5100400;28;20028;-71
2021/07/04 05:24:02;;;;;;;4.40;3.88;;;20.60;94.50;;;;;;5100646;28;20036;-71
2021/07/04 05:26:28;;;;;;;4.47;3.47;;;20.70;94.50;;;;;;5100628;28;20028;-71
2021/07/04 05:28:55;;;;;;;4.28;3.50;;;20.80;93.40;;;;;;5100500;28;20315;-71
2021/07/04 05:31:21;;;;;;;7.10;4.10;;;20.80;93.70;;;;;;5100235;28;20051;-71
2021/07/04 05:33:46;;;;;;;5.13;4.22;;;20.80;94.30;;;;;;5100144;28;20020;-71
2021/07/04 05:36:12;;;;;;;5.30;3.63;;;20.80;94.90;;;;;;5100379;28;20024;-71
2021/07/04 05:38:40;;;;;;;4.07;3.67;;;20.80;93.70;;;;;;5100395;28;20313;-71
2021/07/04 05:41:06;;;;;;;4.15;3.63;;;20.80;92.60;;;;;;5100017;28;20035;-71
2021/07/04 05:43:31;;;;;;;5.60;5.07;;;20.80;93.60;;;;;;5100042;28;20020;-71
2021/07/04 05:45:59;;;;;;;6.00;5.50;;;20.70;93.50;;;;;;5100258;28;20024;-71
2021/07/04 05:48:25;;;;;;;5.95;5.45;;;20.70;94.40;;;;;;5099819;28;20012;-71
2021/07/04 05:50:52;;;;;;;6.40;5.78;;;20.50;94.40;;;;;;5100136;28;20031;-71
2021/07/04 05:53:17;;;;;;;5.53;4.95;;;20.50;94.70;;;;;;5099775;28;20323;-70
2021/07/04 05:55:44;;;;;;;5.18;3.85;;;20.50;95.00;;;;;;5099547;28;20139;-71
2021/07/04 05:58:10;;;;;;;5.43;4.97;;;20.50;94.80;;;;;;5099715;28;20059;-71
2021/07/04 06:00:36;;;;;;;5.57;3.95;;;20.50;95.50;;;;;;5099678;28;20032;-71
2021/07/04 06:03:02;;;;;;;5.63;3.72;;;20.60;95.60;;;;;;5099645;28;20026;-71
2021/07/04 06:05:28;;;;;;;6.35;4.07;;;20.60;93.80;;;;;;5099866;28;20425;-71
2021/07/04 06:07:53;;;;;;;4.22;3.78;;;20.70;94.30;;;;;;5099853;28;20045;-71
2021/07/04 06:10:19;;;;;;;4.03;3.63;;;20.90;94.60;;;;;;5099695;28;20416;-71
2021/07/04 06:12:45;;;;;;;9.98;3.30;;;20.90;92.20;;;;;;5098711;28;20039;-71
2021/07/04 06:15:11;;;;;;;4.13;3.60;;;21.00;93.30;;;;;;5099621;28;20107;-70
2021/07/04 06:17:37;;;;;;;3.47;3.17;;;21.10;92.30;;;;;;5099349;28;20457;-71
2021/07/04 06:20:06;;;;;;;3.72;3.30;;;21.20;92.50;;;;;;5099586;28;20110;-71
2021/07/04 06:22:32;;;;;;;5.47;3.53;;;21.20;91.30;;;;;;5099188;28;20110;-71
2021/07/04 06:24:57;;;;;;;3.75;3.38;;;21.30;92.90;;;;;;5099574;28;20104;-71
2021/07/04 06:27:23;;;;;;;5.13;3.75;;;21.40;93.00;;;;;;5099397;28;20103;-71
2021/07/04 06:29:49;;;;;;;3.50;3.08;;;21.50;92.10;;;;;;5099345;28;20056;-71
2021/07/04 06:32:14;;;;;;;3.53;3.22;;;21.40;92.50;;;;;;5099382;28;20016;-71
2021/07/04 06:34:40;;;;;;;3.63;3.20;;;21.40;93.30;;;;;;5099010;28;20424;-71
2021/07/04 06:37:06;;;;;;;5.75;3.13;;;21.30;93.10;;;;;;5098919;28;20077;-71
2021/07/04 06:39:31;;;;;;;3.92;3.08;;;21.20;92.90;;;;;;5099210;28;20032;-71
2021/07/04 06:41:57;;;;;;;4.55;3.60;;;21.10;93.20;;;;;;5098860;28;20035;-71
2021/07/04 06:44:22;;;;;;;3.85;3.45;;;21.00;93.70;;;;;;5099272;28;20067;-71
2021/07/04 06:46:48;;;;;;;3.08;2.78;;;21.00;93.50;;;;;;5098761;28;20052;-71
2021/07/04 06:49:14;;;;;;;4.07;3.67;;;20.90;93.50;;;;;;5098897;28;20028;-71
2021/07/04 06:51:39;;;;;;;4.00;3.60;;;20.70;94.60;;;;;;5099001;28;20024;-71
2021/07/04 06:54:05;;;;;;;4.30;3.25;;;20.60;94.80;;;;;;5098969;28;20024;-71
2021/07/04 06:56:31;;;;;;;3.50;3.20;;;20.60;94.30;;;;;;5098396;28;20040;-71
2021/07/04 06:58:56;;;;;;;4.28;3.75;;;20.50;94.30;;;;;;5098852;28;20032;-71
2021/07/04 07:01:22;;;;;;;5.22;3.67;;;20.50;94.60;;;;;;5098793;28;20032;-71
2021/07/04 07:03:47;;;;;;;4.30;3.90;;;20.40;95.50;;;;;;5098723;28;20039;-71
2021/07/04 07:06:13;;;;;;;4.70;4.25;;;20.40;95.20;;;;;;5098704;28;20328;-71
2021/07/04 07:08:39;;;;;;;3.90;3.60;;;20.30;95.60;;;;;;5098567;28;20104;-71
2021/07/04 07:11:04;;;;;;;4.93;4.53;;;20.30;95.80;;;;;;5098645;28;20031;-71
2021/07/04 07:13:30;;;;;;;4.78;4.13;;;20.40;95.80;;;;;;5098274;28;20032;-71
2021/07/04 07:15:56;;;;;;;6.80;4.47;;;20.40;96.00;;;;;;5098522;28;20027;-71
2021/07/04 07:18:21;;;;;;;6.97;5.07;;;20.40;95.70;;;;;;5098458;28;20115;-71
2021/07/04 07:20:47;;;;;;;5.32;4.82;;;20.50;95.00;;;;;;5098432;28;20043;-71
2021/07/04 07:23:13;;;;;;;4.95;4.55;;;20.60;94.60;;;;;;5098351;28;20050;-71
2021/07/04 07:25:40;;;;;;;5.88;5.38;;;20.70;94.20;;;;;;5096992;28;20035;-71
2021/07/04 07:28:05;;;;;;;4.95;4.55;;;20.80;94.00;;;;;;5098259;28;20103;-71
2021/07/04 07:30:31;;;;;;;7.28;4.90;;;20.90;93.20;;;;;;5097853;28;20500;-71
2021/07/04 07:32:57;;;;;;;4.75;4.22;;;21.10;92.60;;;;;;5098180;28;20095;-71
2021/07/04 07:35:23;;;;;;;7.47;4.53;;;21.30;92.90;;;;;;5098103;28;20362;-71
2021/07/04 07:37:51;;;;;;;4.97;4.10;;;21.40;93.50;;;;;;5097794;28;20028;-71
2021/07/04 07:40:18;;;;;;;7.43;4.80;;;21.50;91.50;;;;;;5097751;28;20024;-71
2021/07/04 07:42:43;;;;;;;5.35;4.15;;;21.50;92.00;;;;;;5097706;28;20085;-71
2021/07/04 07:45:17;;;;;;;;;;;21.50;93.40;;;;;;5115895;27;20687;-69
2021/07/04 07:47:42;;;;;;;;;;;21.60;91.10;;;;;;5115333;28;19908;-69
2021/07/04 07:50:09;;;;;;;5.00;3.60;;;21.50;90.80;;;;;;5114853;28;20003;-69
2021/07/04 07:52:34;;;;;;;3.58;3.17;;;21.50;91.60;;;;;;5114815;28;20043;-69
2021/07/04 07:55:00;;;;;;;3.78;3.13;;;21.70;92.40;;;;;;5114801;28;20453;-69
2021/07/04 07:57:26;;;;;;;3.70;3.38;;;22.10;89.60;;;;;;5114407;28;20039;-71
2021/07/04 07:59:51;;;;;;;3.83;3.30;;;22.40;87.80;;;;;;5114319;28;20031;-71
2021/07/04 08:02:17;;;;;;;4.85;4.07;;;22.50;87.60;;;;;;5114613;28;20077;-71
2021/07/04 08:04:43;;;;;;;3.63;3.33;;;22.50;89.10;;;;;;5114560;28;20383;-71
2021/07/04 08:07:08;;;;;;;6.05;3.22;;;22.60;88.10;;;;;;5114474;28;20047;-71
2021/07/04 08:09:34;;;;;;;3.67;3.38;;;22.40;88.30;;;;;;5114444;28;20425;-71
2021/07/04 08:12:00;;;;;;;4.22;3.03;;;22.30;88.30;;;;;;5114095;28;20030;-71
2021/07/04 08:14:25;;;;;;;4.35;3.22;;;22.20;88.40;;;;;;5114019;28;20039;-71
2021/07/04 08:16:51;;;;;;;7.13;3.10;;;22.20;88.90;;;;;;5114018;28;20028;-71
2021/07/04 08:19:17;;;;;;;6.05;2.65;;;22.20;88.60;;;;;;5113938;28;20114;-71
2021/07/04 08:21:43;;;;;;;4.03;3.00;;;22.30;87.50;;;;;;5114250;28;20031;-71
2021/07/04 08:24:09;;;;;;;3.20;2.90;;;22.80;87.40;;;;;;5113807;28;20023;-71
2021/07/04 08:26:35;;;;;;;3.83;3.05;;;22.90;85.90;;;;;;5113795;28;20092;-71
2021/07/04 08:29:01;;;;;;;8.15;3.05;;;23.10;85.70;;;;;;5113734;28;20020;-71
2021/07/04 08:31:27;;;;;;;3.47;2.65;;;23.20;87.30;;;;;;5114088;28;20031;-69
2021/07/04 08:33:54;;;;;;;5.50;2.97;;;23.20;88.10;;;;;;5113977;28;20031;-69
2021/07/04 08:36:20;;;;;;;5.30;2.80;;;23.10;86.10;;;;;;5113947;28;20034;-71
2021/07/04 08:38:46;;;;;;;5.80;2.95;;;23.00;88.80;;;;;;5113646;28;20026;-72
2021/07/04 08:41:13;;;;;;;4.15;3.53;;;23.10;87.60;;;;;;5113888;28;20047;-69
2021/07/04 08:43:39;;;;;;;3.50;2.97;;;23.20;83.60;;;;;;5113238;27;20046;-69
2021/07/04 08:46:05;;;;;;;5.65;3.25;;;23.20;86.30;;;;;;5113772;28;20106;-70
2021/07/04 08:48:37;;;;;;;3.15;2.70;;;23.20;84.40;;;;;;5113432;28;20049;-69
2021/07/04 08:51:04;;;;;;;2.88;2.47;;;23.10;85.00;;;;;;5113738;28;20316;-69
2021/07/04 08:53:30;;;;;;;4.63;2.72;;;23.00;85.00;;;;;;5113630;28;20031;-69
2021/07/04 08:55:56;;;;;;;3.13;2.45;;;23.00;83.90;;;;;;5103941;28;20032;-71
2021/07/04 08:58:24;;;;;;;3.80;2.63;;;23.00;84.60;;;;;;5099941;28;20112;-71
2021/07/04 09:01:09;;;;;;;3.15;2.85;;;23.00;84.70;;;;;;5099911;28;20024;-70
2021/07/04 09:03:36;;;;;;;3.23;2.93;;;22.90;85.80;;;;;;5099430;28;20077;-69
2021/07/04 09:06:01;;;;;;;3.80;2.72;;;23.00;85.80;;;;;;5099782;28;20250;-69
2021/07/04 09:08:27;;;;;;;3.50;3.13;;;23.10;85.50;;;;;;5099447;28;20347;-72
2021/07/04 09:11:16;;;;;;;2.92;2.60;;;23.10;84.70;;;;;;5099738;28;20024;-72
2021/07/04 09:13:44;;;;;;;3.05;2.40;;;23.10;85.20;;;;;;5099696;28;20032;-69
2021/07/04 09:16:16;;;;;;;3.67;2.60;;;23.00;85.10;;;;;;5099265;28;20107;-69
2021/07/04 09:18:42;;;;;;;4.45;2.65;;;23.20;83.40;;;;;;5099536;28;20092;-70
2021/07/04 09:21:20;;;;;;;2.30;2.10;;;23.90;85.90;;;;;;5099548;28;20171;-70
2021/07/04 09:23:46;;;;;;;2.25;2.05;;;24.20;84.10;;;;;;5099420;28;20032;-70
2021/07/04 09:26:42;;;;;;;4.05;2.20;;;24.20;82.70;;;;;;5099103;28;20043;-70
2021/07/04 09:29:09;;;;;;;3.70;2.35;;;24.10;81.40;;;;;;5096724;28;20032;-69
2021/07/04 09:31:36;;;;;;;2.70;2.50;;;23.80;83.70;;;;;;5099284;28;20027;-69
2021/07/04 09:34:12;;;;;;;3.72;2.30;;;23.70;83.30;;;;;;5098890;28;20028;-70
2021/07/04 09:36:40;;;;;;;4.78;2.75;;;23.40;83.80;;;;;;5098891;28;20032;-70
2021/07/04 09:39:20;;;;;;;3.80;2.45;;;23.40;83.20;;;;;;5099205;28;20336;-70
2021/07/04 09:42:24;;;;;;;4.10;3.33;;;23.30;85.40;;;;;;5099150;28;20092;-70
2021/07/04 09:44:56;;;;;;;3.88;2.95;;;23.20;83.40;;;;;;5076510;28;20052;-70
2021/07/04 09:47:21;;;;;;;5.55;3.30;;;23.20;85.90;;;;;;5076639;28;20028;-70
2021/07/04 09:49:49;;;;;;;5.20;3.05;;;23.30;85.40;;;;;;5087705;28;20032;-70
2021/07/04 09:52:20;;;;;;;8.07;3.40;;;23.50;82.50;;;;;;5098627;28;20055;-70
2021/07/04 09:55:03;;;;;;;4.00;3.00;;;23.80;84.60;;;;;;5098541;28;20028;-70
2021/07/04 09:57:58;;;;;;;3.17;2.88;;;23.90;83.50;;;;;;5098597;28;20020;-70
2021/07/04 10:00:29;;;;;;;3.60;3.30;;;24.20;80.90;;;;;;5098803;28;20394;-70
2021/07/04 10:03:19;;;;;;;3.15;2.85;;;24.70;81.90;;;;;;5098265;28;20031;-70
2021/07/04 10:06:00;;;;;;;4.15;2.85;;;24.90;77.90;;;;;;5098548;28;20020;-70
2021/07/04 10:08:32;;;;;;;3.30;2.60;;;24.90;79.80;;;;;;5097456;28;20021;-70
2021/07/04 10:11:09;;;;;;;4.13;2.55;;;24.90;79.90;;;;;;5098603;28;20036;-70
2021/07/04 10:13:37;;;;;;;4.45;2.85;;;25.30;80.60;;;;;;5098328;28;20404;-70
2021/07/04 10:16:03;;;;;;;3.20;2.38;;;26.10;75.30;;;;;;5098087;28;20443;-70
2021/07/04 10:18:29;;;;;;;3.25;2.13;;;25.90;78.10;;;;;;5088835;28;20025;-70
2021/07/04 10:20:55;;;;;;;3.05;2.13;;;25.60;76.90;;;;;;5089338;28;20381;-70
2021/07/04 10:23:25;;;;;;;2.72;1.90;;;25.20;78.80;;;;;;5098202;28;20035;-70
2021/07/04 10:25:52;;;;;;;2.28;1.48;;;25.20;78.00;;;;;;5097933;28;20435;-70
2021/07/04 10:28:39;;;;;;;2.97;2.00;;;25.80;80.30;;;;;;5097920;28;20020;-70
2021/07/04 10:31:10;;;;;;;2.30;1.33;;;26.90;74.00;;;;;;5098208;28;20032;-70
2021/07/04 10:33:36;;;;;;;1.77;1.30;;;28.00;71.80;;;;;;5097917;28;20027;-70
2021/07/04 10:36:15;;;;;;;1.73;1.10;;;28.30;70.10;;;;;;5098038;28;20028;-70
2021/07/04 10:38:45;;;;;;;1.70;1.60;;;28.20;71.90;;;;;;5098046;28;20300;-71
2021/07/04 10:41:26;;;;;;;3.33;1.40;;;27.70;72.00;;;;;;5097999;28;20028;-70
2021/07/04 10:44:11;;;;;;;1.88;1.30;;;27.00;74.30;;;;;;5097478;28;20055;-70
2021/07/04 10:46:41;;;;;;;2.38;1.33;;;26.20;74.60;;;;;;5097844;28;20115;-70
2021/07/04 10:49:21;;;;;;;2.97;1.35;;;25.70;77.60;;;;;;5090654;28;20040;-70
2021/07/04 10:51:57;;;;;;;2.55;1.60;;;25.30;78.80;;;;;;5092586;28;20408;-70
2021/07/04 10:54:47;;;;;;;2.92;2.03;;;24.90;79.40;;;;;;5097851;28;20024;-70
2021/07/04 10:57:33;;;;;;;2.83;1.50;;;24.70;77.30;;;;;;5097708;28;20358;-70
2021/07/04 10:59:59;;;;;;;2.15;1.48;;;24.90;80.20;;;;;;5097357;28;20107;-70
2021/07/04 11:02:51;;;;;;;4.10;2.05;;;25.20;80.90;;;;;;5097310;28;20060;-70
2021/07/04 11:05:38;;;;;;;3.20;2.10;;;25.40;79.80;;;;;;5094505;28;20032;-70
2021/07/04 11:08:23;;;;;;;3.13;1.70;;;25.50;74.10;;;;;;5097600;28;20109;-70
2021/07/04 11:10:48;;;;;;;3.28;2.00;;;25.40;75.70;;;;;;5097520;28;20315;-70
2021/07/04 11:13:17;;;;;;;2.83;2.40;;;25.30;77.20;;;;;;5097411;28;20036;-70
2021/07/04 11:15:50;;;;;;;3.03;1.88;;;25.20;76.50;;;;;;5097370;28;20024;-70
2021/07/04 11:18:20;;;;;;;3.75;2.00;;;25.30;76.20;;;;;;5096904;28;20027;-70
2021/07/04 11:20:50;;;;;;;3.03;1.90;;;25.50;77.40;;;;;;5097359;28;20040;-70
2021/07/04 11:26:20;;;;;;;2.38;2.10;;;25.50;79.00;;;;;;5097046;28;20451;-70
2021/07/04 11:28:48;;;;;;;2.55;1.73;;;25.40;78.50;;;;;;5092356;28;20032;-70
2021/07/04 11:31:16;;;;;;;4.45;2.28;;;25.40;78.90;;;;;;5096901;28;20513;-70
2021/07/04 11:33:50;;;;;;;4.75;1.80;;;25.20;77.70;;;;;;5097136;28;20039;-70
2021/07/04 11:36:16;;;;;;;2.47;1.90;;;25.10;78.10;;;;;;5097154;28;20117;-70
2021/07/04 11:38:55;;;;;;;2.10;1.55;;;24.90;80.60;;;;;;5096793;28;20040;-70
2021/07/04 11:41:43;;;;;;;3.90;1.60;;;24.80;80.00;;;;;;5097398;28;20020;-70
2021/07/04 11:44:19;;;;;;;3.20;2.28;;;24.70;82.20;;;;;;5096563;28;20044;-70
2021/07/04 11:46:48;;;;;;;2.38;2.05;;;24.80;78.50;;;;;;5096791;28;20035;-70
2021/07/04 11:49:18;;;;;;;3.08;2.08;;;24.90;77.90;;;;;;5096825;28;20300;-70
2021/07/04 11:51:59;;;;;;;3.05;1.80;;;25.00;81.70;;;;;;5096869;28;20024;-70
2021/07/04 11:54:29;;;;;;;3.10;2.00;;;25.00;81.20;;;;;;5096686;28;20428;-70
2021/07/04 11:56:56;;;;;;;2.72;2.10;;;25.00;82.40;;;;;;5096909;28;20025;-70
2021/07/04 11:59:23;;;;;;;2.53;1.85;;;24.90;80.20;;;;;;5096611;28;20362;-70
2021/07/04 12:01:59;;;;;;;2.67;2.08;;;25.00;79.40;;;;;;5096549;28;20020;-70
2021/07/04 12:04:37;;;;;;;2.08;1.88;;;24.90;79.00;;;;;;5096820;28;20020;-70
2021/07/04 12:07:12;;;;;;;4.00;1.90;;;24.90;82.30;;;;;;5096840;28;20316;-70
2021/07/04 12:09:45;;;;;;;1.93;1.73;;;25.00;80.70;;;;;;5096508;28;20031;-70
2021/07/04 12:12:19;;;;;;;2.30;2.10;;;25.10;82.50;;;;;;5096803;28;20028;-70
2021/07/04 12:14:48;;;;;;;3.13;2.22;;;25.10;79.00;;;;;;5096975;28;20036;-70
2021/07/04 12:17:35;;;;;;;3.90;2.53;;;25.10;79.30;;;;;;5096728;28;20028;-70
2021/07/04 12:20:06;;;;;;;3.80;2.55;;;25.00;78.10;;;;;;5092611;28;20028;-70
2021/07/04 12:22:48;;;;;;;2.80;2.15;;;24.90;78.70;;;;;;5096723;28;20043;-70
2021/07/04 12:25:20;;;;;;;2.30;1.80;;;24.80;80.40;;;;;;5096305;28;20110;-70
2021/07/04 12:27:48;;;;;;;3.42;2.20;;;24.70;82.30;;;;;;5096461;28;20459;-70
2021/07/04 12:30:24;;;;;;;2.65;2.20;;;24.60;82.90;;;;;;5097176;28;20028;-70
2021/07/04 12:33:06;;;;;;;;;;;24.50;82.80;;;;;;5100922;28;20043;-70
2021/07/04 12:35:34;;;;;;;4.72;2.42;;;24.30;81.00;;;;;;5100037;28;20315;-70
2021/07/04 12:38:08;;;;;;;2.72;2.22;;;24.20;80.50;;;;;;5100392;28;20024;-70
2021/07/04 12:40:45;;;;;;;3.05;2.67;;;24.20;81.40;;;;;;5100034;28;20051;-70
2021/07/04 12:43:14;;;;;;;4.07;2.67;;;24.10;81.90;;;;;;5099605;28;20082;-70
2021/07/04 12:45:46;;;;;;;3.80;2.75;;;24.10;82.20;;;;;;5099906;28;20448;-70
2021/07/04 12:48:13;;;;;;;5.32;2.83;;;24.00;83.50;;;;;;5099913;28;20020;-70
2021/07/04 12:50:48;;;;;;;3.20;2.90;;;24.00;82.10;;;;;;5099878;28;20396;-70
2021/07/04 12:53:14;;;;;;;3.85;2.58;;;24.00;82.10;;;;;;5099859;28;20420;-70
2021/07/04 12:55:53;;;;;;;4.40;2.95;;;24.00;82.60;;;;;;5099731;28;20024;-70
2021/07/04 12:58:27;;;;;;;5.90;2.60;;;23.90;82.90;;;;;;5099729;28;20106;-70